Time;durP1;ratioP1;P1;durP2;ratioP2;P2;SDS_P1;SDS_P2;PMS_P1;PMS_P2;Temp;Humidity;BMP_temperature;BMP_pressure;BME280_temperature;BME280_humidity;BME280_pressure;Samples;Min_cycle;Max_cycle;Signal;HPM_P1;HPM_P2
2023/05/11 00:02:14;;;;;;;;;;;18.30;62.40;;;;;;5032123;28;895;-68
2023/05/11 00:04:39;;;;;;;;;;;18.20;62.30;;;;;;5019107;28;1285;-69
2023/05/11 00:07:05;;;;;;;;;;;18.30;62.30;;;;;;5025795;28;894;-69
2023/05/11 00:09:30;;;;;;;;;;;18.20;62.30;;;;;;5023823;28;914;-68
2023/05/11 00:11:56;;;;;;;;;;;18.20;62.30;;;;;;5031340;28;895;-69
2023/05/11 00:14:21;;;;;;;;;;;18.20;62.30;;;;;;5027386;28;1937;-68
2023/05/11 00:16:47;;;;;;;;;;;18.30;62.30;;;;;;5027034;28;1290;-68
2023/05/11 00:19:12;;;;;;;;;;;18.30;62.40;;;;;;5025762;28;855;-68
2023/05/11 00:21:38;;;;;;;;;;;18.20;62.30;;;;;;5024916;28;866;-70
2023/05/11 00:24:04;;;;;;;;;;;18.30;62.40;;;;;;5018001;28;991;-70
2023/05/11 00:26:29;;;;;;;;;;;18.30;62.40;;;;;;5027230;28;1344;-69
2023/05/11 00:28:55;;;;;;;;;;;18.20;62.30;;;;;;5029386;28;857;-70
2023/05/11 00:31:20;;;;;;;;;;;18.30;62.40;;;;;;5028101;28;998;-70
2023/05/11 00:33:46;;;;;;;;;;;18.20;62.30;;;;;;5057658;28;1914;-70
2023/05/11 00:36:11;;;;;;;;;;;18.20;62.40;;;;;;5029330;28;1267;-70
2023/05/11 00:38:39;;;;;;;;;;;18.30;62.40;;;;;;5028246;28;1039;-70
2023/05/11 00:41:05;;;;;;;;;;;18.30;62.40;;;;;;5027308;28;968;-70
2023/05/11 00:43:30;;;;;;;;;;;18.20;62.30;;;;;;5025681;28;881;-70
2023/05/11 00:45:56;;;;;;;;;;;18.30;62.40;;;;;;5024148;28;1385;-68
2023/05/11 00:48:22;;;;;;;;;;;18.20;62.40;;;;;;5023746;28;931;-67
2023/05/11 00:50:47;;;;;;;;;;;18.20;62.40;;;;;;5022862;28;889;-68
2023/05/11 00:53:13;;;;;;;;;;;18.20;62.40;;;;;;5022320;28;1625;-68
2023/05/11 00:55:38;;;;;;;;;;;18.20;62.40;;;;;;5025824;28;1977;-70
2023/05/11 00:58:04;;;;;;;;;;;18.30;62.50;;;;;;5030430;28;864;-69
2023/05/11 01:00:30;;;;;;;;;;;18.30;62.50;;;;;;5031526;28;845;-70
2023/05/11 01:02:56;;;;;;;;;;;18.20;62.40;;;;;;5023383;28;862;-69
2023/05/11 01:05:21;;;;;;;;;;;18.20;62.40;;;;;;5029701;28;1361;-70
2023/05/11 01:07:48;;;;;;;;;;;18.20;62.40;;;;;;5025494;28;924;-69
2023/05/11 01:10:26;;;;;;;;;;;18.20;63.30;;;;;;5027612;28;881;-71
2023/05/11 01:13:15;;;;;;;;;;;18.20;62.50;;;;;;5022305;28;872;-71
2023/05/11 01:15:50;;;;;;;;;;;18.20;62.50;;;;;;5011757;28;1969;-71
2023/05/11 01:18:23;;;;;;;;;;;18.20;62.50;;;;;;5024623;28;885;-71
2023/05/11 01:20:48;;;;;;;;;;;18.20;62.50;;;;;;5029758;28;841;-70
2023/05/11 01:23:33;;;;;;;;;;;18.20;62.50;;;;;;5016029;28;924;-70
2023/05/11 01:26:04;;;;;;;;;;;18.20;62.50;;;;;;5028855;28;1260;-70
2023/05/11 01:28:41;;;;;;;;;;;18.20;62.50;;;;;;5025902;28;899;-70
2023/05/11 01:31:10;;;;;;;;;;;18.20;62.50;;;;;;5020504;28;891;-71
2023/05/11 01:33:36;;;;;;;;;;;18.20;62.60;;;;;;5029209;28;1895;-70
2023/05/11 01:36:03;;;;;;;;;;;18.20;62.50;;;;;;5029374;28;1264;-70
2023/05/11 01:38:30;;;;;;;;;;;18.20;62.50;;;;;;5029686;28;932;-70
2023/05/11 01:40:55;;;;;;;;;;;18.20;62.60;;;;;;5011890;28;1342;-68
2023/05/11 01:43:22;;;;;;;;;;;18.20;62.60;;;;;;5030123;28;1022;-69
2023/05/11 01:45:47;;;;;;;;;;;18.20;62.60;;;;;;5029138;28;1291;-69
2023/05/11 01:48:15;;;;;;;;;;;18.30;62.60;;;;;;5027360;28;950;-69
2023/05/11 01:50:41;;;;;;;;;;;18.20;62.60;;;;;;5027717;28;796;-70
2023/05/11 01:53:06;;;;;;;;;;;18.20;62.60;;;;;;5021265;28;848;-69
2023/05/11 01:55:33;;;;;;;;;;;18.20;62.70;;;;;;5026773;28;1911;-68
2023/05/11 01:57:59;;;;;;;;;;;18.30;62.70;;;;;;5021666;28;804;-68
2023/05/11 02:00:24;;;;;;;;;;;18.20;62.70;;;;;;5026013;28;850;-68
2023/05/11 02:02:50;;;;;;;;;;;18.20;62.70;;;;;;5028384;28;868;-67
2023/05/11 02:05:18;;;;;;;;;;;18.20;62.60;;;;;;5028648;28;1272;-67
2023/05/11 02:07:43;;;;;;;;;;;18.20;62.70;;;;;;5025124;28;828;-68
2023/05/11 02:10:09;;;;;;;;;;;18.20;62.70;;;;;;5021033;28;888;-68
2023/05/11 02:12:34;;;;;;;;;;;18.20;62.70;;;;;;5025056;28;883;-69
2023/05/11 02:15:00;;;;;;;;;;;18.20;62.70;;;;;;5033115;28;1898;-69
2023/05/11 02:17:25;;;;;;;;;;;18.20;62.70;;;;;;5027258;28;1010;-69
2023/05/11 02:19:51;;;;;;;;;;;18.20;62.70;;;;;;5019488;28;796;-69
2023/05/11 02:22:16;;;;;;;;;;;18.20;62.70;;;;;;5028969;28;879;-69
2023/05/11 02:24:42;;;;;;;;;;;18.20;62.70;;;;;;5026007;28;1288;-69
2023/05/11 02:27:07;;;;;;;;;;;18.20;62.80;;;;;;5027903;28;1003;-70
2023/05/11 02:29:33;;;;;;;;;;;18.20;62.70;;;;;;5030942;28;868;-70
2023/05/11 02:32:08;;;;;;;;;;;18.20;62.70;;;;;;5024142;28;881;-69
2023/05/11 02:34:44;;;;;;;;;;;18.20;62.70;;;;;;5028722;28;1891;-70
2023/05/11 02:37:10;;;;;;;;;;;18.20;62.80;;;;;;5026761;28;875;-69
2023/05/11 02:39:36;;;;;;;;;;;18.20;62.80;;;;;;5032834;28;1665;-69
2023/05/11 02:42:05;;;;;;;;;;;18.20;62.80;;;;;;5013484;28;1349;-69
2023/05/11 02:44:31;;;;;;;;;;;18.20;62.80;;;;;;5022998;28;805;-69
2023/05/11 02:46:56;;;;;;;;;;;18.20;62.70;;;;;;5020593;28;1354;-69
2023/05/11 02:49:22;;;;;;;;;;;18.20;62.80;;;;;;5038612;28;991;-69
2023/05/11 02:51:48;;;;;;;;;;;18.20;62.80;;;;;;5022610;28;847;-69
2023/05/11 02:54:13;;;;;;;;;;;18.20;62.80;;;;;;5028451;28;1902;-69
2023/05/11 02:56:39;;;;;;;;;;;18.20;62.80;;;;;;5027408;28;1259;-69
2023/05/11 02:59:04;;;;;;;;;;;18.20;62.80;;;;;;5029420;28;804;-69
2023/05/11 03:01:30;;;;;;;;;;;18.20;62.80;;;;;;5032786;28;1205;-69
2023/05/11 03:03:55;;;;;;;;;;;18.20;62.80;;;;;;5031752;28;852;-69
2023/05/11 03:06:21;;;;;;;;;;;18.20;62.80;;;;;;5023157;28;1350;-70
2023/05/11 03:08:46;;;;;;;;;;;18.20;62.80;;;;;;5021855;28;1534;-70
2023/05/11 03:11:13;;;;;;;;;;;18.20;62.80;;;;;;5021369;28;836;-70
2023/05/11 03:13:39;;;;;;;;;;;18.20;62.80;;;;;;5028136;28;1906;-70
2023/05/11 03:16:05;;;;;;;;;;;18.20;62.90;;;;;;5027757;28;1260;-70
2023/05/11 03:18:30;;;;;;;;;;;18.20;62.90;;;;;;5018558;28;1181;-70
2023/05/11 03:20:56;;;;;;;;;;;18.20;62.90;;;;;;5035241;28;897;-70
2023/05/11 03:23:22;;;;;;;;;;;18.20;62.80;;;;;;5023924;28;872;-70
2023/05/11 03:25:47;;;;;;;;;;;18.20;62.90;;;;;;5026735;28;1343;-70
2023/05/11 03:28:13;;;;;;;;;;;18.20;62.90;;;;;;5026674;28;1179;-70
2023/05/11 03:30:38;;;;;;;;;;;18.20;62.90;;;;;;5029893;28;1031;-70
2023/05/11 03:33:04;;;;;;;;;;;18.20;62.90;;;;;;5033028;28;837;-71
2023/05/11 03:35:30;;;;;;;;;;;18.20;63.00;;;;;;5030038;28;1895;-69
2023/05/11 03:37:55;;;;;;;;;;;18.20;62.90;;;;;;5027652;28;828;-71
2023/05/11 03:40:21;;;;;;;;;;;18.20;62.90;;;;;;5036449;28;1040;-71
2023/05/11 03:42:46;;;;;;;;;;;18.20;62.90;;;;;;5018937;28;1304;-71
2023/05/11 03:45:12;;;;;;;;;;;18.20;62.90;;;;;;5022363;28;1338;-71
2023/05/11 03:47:37;;;;;;;;;;;18.20;62.90;;;;;;5021233;28;934;-70
2023/05/11 03:50:03;;;;;;;;;;;18.20;62.90;;;;;;5025835;28;1013;-71
2023/05/11 03:52:28;;;;;;;;;;;18.20;62.90;;;;;;5031252;28;884;-71
2023/05/11 03:54:54;;;;;;;;;;;18.20;62.90;;;;;;5029068;28;1906;-71
2023/05/11 03:57:20;;;;;;;;;;;18.20;62.90;;;;;;5033576;28;890;-72
2023/05/11 03:59:45;;;;;;;;;;;18.20;62.90;;;;;;5037196;28;851;-70
2023/05/11 04:02:11;;;;;;;;;;;18.20;63.00;;;;;;5028295;28;828;-70
2023/05/11 04:04:36;;;;;;;;;;;18.20;62.90;;;;;;5032740;28;1272;-69
2023/05/11 04:07:02;;;;;;;;;;;18.20;63.00;;;;;;5026371;28;922;-70
2023/05/11 04:09:27;;;;;;;;;;;18.20;62.90;;;;;;5028971;28;867;-70
2023/05/11 04:11:53;;;;;;;;;;;18.20;63.00;;;;;;5027585;28;1085;-69
2023/05/11 04:14:19;;;;;;;;;;;18.20;63.00;;;;;;5023664;28;1898;-70
2023/05/11 04:16:45;;;;;;;;;;;18.20;63.00;;;;;;5029511;28;1291;-70
2023/05/11 04:19:10;;;;;;;;;;;18.20;63.00;;;;;;5033487;28;808;-70
2023/05/11 04:21:38;;;;;;;;;;;18.20;63.00;;;;;;5021458;28;1230;-70
2023/05/11 04:24:05;;;;;;;;;;;18.20;63.00;;;;;;5035341;28;1023;-70
2023/05/11 04:26:30;;;;;;;;;;;18.20;63.00;;;;;;5022017;28;1261;-70
2023/05/11 04:28:58;;;;;;;;;;;18.20;63.00;;;;;;5022864;28;860;-70
2023/05/11 04:31:23;;;;;;;;;;;18.20;63.10;;;;;;5024254;28;906;-70
2023/05/11 04:33:49;;;;;;;;;;;18.20;63.00;;;;;;5030003;28;1898;-69
2023/05/11 04:36:14;;;;;;;;;;;18.20;63.00;;;;;;5028357;28;1264;-69
2023/05/11 04:38:40;;;;;;;;;;;18.20;63.10;;;;;;5026318;28;833;-70
2023/05/11 04:41:05;;;;;;;;;;;18.20;63.00;;;;;;5024904;28;1286;-71
2023/05/11 04:43:31;;;;;;;;;;;18.20;63.10;;;;;;5023455;28;935;-71
2023/05/11 04:45:58;;;;;;;;;;;18.20;63.10;;;;;;5027761;28;1388;-70
2023/05/11 04:48:23;;;;;;;;;;;18.20;63.10;;;;;;5026478;28;868;-70
2023/05/11 04:50:49;;;;;;;;;;;18.20;63.10;;;;;;5027971;28;1429;-70
2023/05/11 04:53:15;;;;;;;;;;;18.20;63.10;;;;;;5021326;28;1458;-70
2023/05/11 04:55:42;;;;;;;;;;;18.20;63.10;;;;;;5029727;28;1910;-69
2023/05/11 04:58:08;;;;;;;;;;;18.20;63.10;;;;;;5030311;28;1030;-70
2023/05/11 05:00:35;;;;;;;;;;;18.20;63.10;;;;;;5027519;28;941;-70
2023/05/11 05:03:00;;;;;;;;;;;18.20;63.10;;;;;;5024833;28;860;-71
2023/05/11 05:05:26;;;;;;;;;;;18.20;63.10;;;;;;5027713;28;1272;-71
2023/05/11 05:07:52;;;;;;;;;;;18.20;63.10;;;;;;5028025;28;938;-71
2023/05/11 05:10:17;;;;;;;;;;;18.20;63.10;;;;;;5031482;28;924;-71
2023/05/11 05:12:42;;;;;;;;;;;18.20;63.10;;;;;;5027300;28;853;-71
2023/05/11 05:15:08;;;;;;;;;;;18.20;63.10;;;;;;5029847;28;1914;-71
2023/05/11 05:17:34;;;;;;;;;;;18.20;63.20;;;;;;5027763;28;810;-71
2023/05/11 05:19:59;;;;;;;;;;;18.20;63.10;;;;;;5027483;28;901;-71
2023/05/11 05:22:25;;;;;;;;;;;18.20;63.10;;;;;;5042605;28;849;-71
2023/05/11 05:24:50;;;;;;;;;;;18.20;63.10;;;;;;5025926;28;1215;-72
2023/05/11 05:27:16;;;;;;;;;;;18.20;63.10;;;;;;5029798;28;864;-71
2023/05/11 05:29:41;;;;;;;;;;;18.20;63.10;;;;;;5025509;28;828;-72
2023/05/11 05:32:07;;;;;;;;;;;18.20;63.00;;;;;;5022001;28;1779;-71
2023/05/11 05:34:32;;;;;;;;;;;18.30;63.00;;;;;;5026359;28;1957;-71
2023/05/11 05:36:58;;;;;;;;;;;18.30;63.00;;;;;;5030031;28;1268;-72
2023/05/11 05:39:23;;;;;;;;;;;18.30;62.90;;;;;;5029376;28;1393;-70
2023/05/11 05:41:49;;;;;;;;;;;18.30;62.80;;;;;;5024162;28;863;-70
2023/05/11 05:44:14;;;;;;;;;;;18.30;62.70;;;;;;5019694;28;818;-70
2023/05/11 05:46:40;;;;;;;;;;;18.40;62.70;;;;;;5028328;28;1361;-72
2023/05/11 05:49:05;;;;;;;;;;;18.40;62.60;;;;;;5023916;28;2304;-71
2023/05/11 05:51:31;;;;;;;;;;;18.40;62.50;;;;;;5025136;28;1985;-72
2023/05/11 05:53:57;;;;;;;;;;;18.40;62.50;;;;;;5024291;28;1902;-73
2023/05/11 05:56:22;;;;;;;;;;;18.40;62.40;;;;;;5025278;28;1287;-73
2023/05/11 05:58:48;;;;;;;;;;;18.40;62.30;;;;;;5029111;28;875;-73
2023/05/11 06:01:13;;;;;;;;;;;18.50;62.40;;;;;;5029561;28;875;-68
2023/05/11 06:03:39;;;;;;;;;;;18.50;62.30;;;;;;5028120;28;1106;-68
2023/05/11 06:06:05;;;;;;;;;;;18.50;62.20;;;;;;5026481;28;1248;-69
2023/05/11 06:08:31;;;;;;;;;;;18.50;62.20;;;;;;5011929;28;1333;-70
2023/05/11 06:10:56;;;;;;;;;;;18.50;62.20;;;;;;5026208;28;851;-68
2023/05/11 06:13:22;;;;;;;;;;;18.50;62.10;;;;;;5026581;28;943;-68
2023/05/11 06:15:47;;;;;;;;;;;18.60;62.10;;;;;;5028953;28;1902;-70
2023/05/11 06:18:13;;;;;;;;;;;18.60;62.00;;;;;;5029651;28;812;-73
2023/05/11 06:20:38;;;;;;;;;;;18.60;62.00;;;;;;5030869;28;880;-69
2023/05/11 06:23:04;;;;;;;;;;;18.60;61.90;;;;;;5026718;28;844;-73
2023/05/11 06:25:32;;;;;;;;;;;18.60;61.90;;;;;;5028605;28;1331;-71
2023/05/11 06:27:57;;;;;;;;;;;18.60;61.80;;;;;;5026447;28;2145;-70
2023/05/11 06:30:23;;;;;;;;;;;18.60;61.80;;;;;;5030036;28;1230;-71
2023/05/11 06:32:48;;;;;;;;;;;18.60;61.80;;;;;;5027547;28;1249;-71
2023/05/11 06:35:14;;;;;;;;;;;18.60;61.70;;;;;;5027108;28;1961;-71
2023/05/11 06:37:39;;;;;;;;;;;18.70;61.80;;;;;;5027370;28;1255;-70
2023/05/11 06:40:06;;;;;;;;;;;18.60;61.60;;;;;;5026219;28;1325;-70
2023/05/11 06:42:32;;;;;;;;;;;18.70;61.70;;;;;;5023141;28;927;-70
2023/05/11 06:44:57;;;;;;;;;;;18.70;61.70;;;;;;5027555;28;1371;-70
2023/05/11 06:47:23;;;;;;;;;;;18.70;61.70;;;;;;5026098;28;805;-70
2023/05/11 06:49:48;;;;;;;;;;;18.70;61.60;;;;;;5026472;28;876;-70
2023/05/11 06:52:14;;;;;;;;;;;18.70;61.60;;;;;;5027639;28;812;-70
2023/05/11 06:54:39;;;;;;;;;;;18.70;61.60;;;;;;5023712;28;1949;-70
2023/05/11 06:57:04;;;;;;;;;;;18.70;61.60;;;;;;5030274;28;883;-70
2023/05/11 06:59:31;;;;;;;;;;;18.70;61.60;;;;;;5030365;28;903;-70
2023/05/11 07:01:56;;;;;;;;;;;18.70;61.60;;;;;;5023487;28;991;-70
2023/05/11 07:04:22;;;;;;;;;;;18.70;61.60;;;;;;5017202;28;971;-71
2023/05/11 07:06:47;;;;;;;;;;;18.70;61.60;;;;;;5029864;28;1273;-76
2023/05/11 07:09:13;;;;;;;;;;;18.70;61.60;;;;;;5035135;28;1237;-73
2023/05/11 07:11:39;;;;;;;;;;;18.70;61.60;;;;;;5026662;28;784;-73
2023/05/11 07:14:07;;;;;;;;;;;18.70;61.60;;;;;;5028348;28;1910;-72
2023/05/11 07:16:36;;;;;;;;;;;18.70;61.70;;;;;;5017125;28;1283;-71
2023/05/11 07:19:03;;;;;;;;;;;18.70;61.70;;;;;;5035033;28;1742;-72
2023/05/11 07:21:28;;;;;;;;;;;18.70;61.80;;;;;;5027615;28;888;-70
2023/05/11 07:23:53;;;;;;;;;;;18.70;61.70;;;;;;5030177;28;935;-71
2023/05/11 07:26:20;;;;;;;;;;;18.70;61.80;;;;;;5029343;28;1346;-72
2023/05/11 07:28:46;;;;;;;;;;;18.70;61.80;;;;;;5027219;28;864;-71
2023/05/11 07:31:11;;;;;;;;;;;18.70;61.80;;;;;;5032782;28;935;-71
2023/05/11 07:33:37;;;;;;;;;;;18.70;61.80;;;;;;5024688;28;2169;-71
2023/05/11 07:36:02;;;;;;;;;;;18.60;61.70;;;;;;5027730;28;1898;-73
2023/05/11 07:38:28;;;;;;;;;;;18.60;61.80;;;;;;5028016;28;1430;-71
2023/05/11 07:40:53;;;;;;;;;;;18.60;61.80;;;;;;5024732;28;970;-73
2023/05/11 07:43:19;;;;;;;;;;;18.60;61.80;;;;;;5024691;28;1002;-71
2023/05/11 07:45:44;;;;;;;;;;;18.60;61.80;;;;;;5029810;28;1378;-71
2023/05/11 07:48:10;;;;;;;;;;;18.60;61.80;;;;;;5028048;28;883;-73
2023/05/11 07:50:35;;;;;;;;;;;18.60;61.90;;;;;;5058253;28;1301;-74
2023/05/11 07:53:01;;;;;;;;;;;18.60;61.90;;;;;;5027528;28;891;-74
2023/05/11 07:55:29;;;;;;;;;;;18.60;61.90;;;;;;5030392;28;1969;-71
2023/05/11 07:57:54;;;;;;;;;;;18.60;61.90;;;;;;5033098;28;1187;-72
2023/05/11 08:00:20;;;;;;;;;;;18.60;62.00;;;;;;5025206;28;1410;-72
2023/05/11 08:02:46;;;;;;;;;;;18.60;62.00;;;;;;5029195;28;1287;-71
2023/05/11 08:05:11;;;;;;;;;;;18.60;62.00;;;;;;5032047;28;1339;-72
2023/05/11 08:07:37;;;;;;;;;;;18.60;62.00;;;;;;5031414;28;832;-71
2023/05/11 08:10:02;;;;;;;;;;;18.60;62.10;;;;;;5035817;28;780;-72
2023/05/11 08:12:28;;;;;;;;;;;18.60;62.10;;;;;;5034102;28;828;-72
2023/05/11 08:14:54;;;;;;;;;;;18.60;62.20;;;;;;5029591;28;1967;-72
2023/05/11 08:17:19;;;;;;;;;;;18.60;62.10;;;;;;5042739;28;1237;-72
2023/05/11 08:19:45;;;;;;;;;;;18.60;62.10;;;;;;5026084;28;866;-72
2023/05/11 08:22:10;;;;;;;;;;;18.60;62.20;;;;;;5028350;28;1386;-72
2023/05/11 08:24:36;;;;;;;;;;;18.60;62.20;;;;;;5029634;28;1823;-72
2023/05/11 08:27:01;;;;;;;;;;;18.60;62.20;;;;;;5033681;28;1379;-72
2023/05/11 08:29:27;;;;;;;;;;;18.60;62.20;;;;;;5028064;28;1269;-71
2023/05/11 08:31:52;;;;;;;;;;;18.60;62.30;;;;;;5030023;28;1502;-72
2023/05/11 08:34:18;;;;;;;;;;;18.60;62.20;;;;;;5020993;28;1951;-71
2023/05/11 08:36:43;;;;;;;;;;;18.50;62.20;;;;;;5030556;28;1699;-71
2023/05/11 08:39:09;;;;;;;;;;;18.50;62.20;;;;;;5022092;28;871;-72
2023/05/11 08:41:34;;;;;;;;;;;18.60;62.30;;;;;;5029137;28;1336;-72
2023/05/11 08:44:00;;;;;;;;;;;18.50;62.30;;;;;;5027099;28;1431;-71
2023/05/11 08:46:27;;;;;;;;;;;18.50;62.30;;;;;;5026607;28;1881;-71
2023/05/11 08:48:52;;;;;;;;;;;18.50;62.40;;;;;;5029636;28;1870;-71
2023/05/11 08:51:18;;;;;;;;;;;18.50;62.40;;;;;;5028594;28;1376;-71
2023/05/11 08:53:43;;;;;;;;;;;18.50;62.40;;;;;;5023583;28;1480;-71
2023/05/11 08:56:09;;;;;;;;;;;18.50;62.40;;;;;;5029710;28;1902;-71
2023/05/11 08:58:37;;;;;;;;;;;18.50;62.50;;;;;;5023720;28;1626;-71
2023/05/11 09:01:03;;;;;;;;;;;18.50;62.40;;;;;;5028255;28;880;-71
2023/05/11 09:03:29;;;;;;;;;;;18.50;62.50;;;;;;5028760;28;966;-70
2023/05/11 09:05:55;;;;;;;;;;;18.50;62.50;;;;;;5020983;28;1288;-70
2023/05/11 09:08:20;;;;;;;;;;;18.50;62.50;;;;;;5028156;28;871;-71
2023/05/11 09:10:46;;;;;;;;;;;18.50;62.50;;;;;;5030020;28;1010;-70
2023/05/11 09:13:12;;;;;;;;;;;18.50;62.50;;;;;;5026496;28;1213;-71
2023/05/11 09:15:37;;;;;;;;;;;18.50;62.50;;;;;;5030770;28;1914;-71
2023/05/11 09:18:03;;;;;;;;;;;18.50;62.60;;;;;;5027028;28;942;-70
2023/05/11 09:20:30;;;;;;;;;;;18.50;62.60;;;;;;5011661;28;852;-70
2023/05/11 09:22:56;;;;;;;;;;;18.50;62.60;;;;;;5020224;28;828;-70
2023/05/11 09:25:21;;;;;;;;;;;18.50;62.60;;;;;;5025696;28;1241;-70
2023/05/11 09:27:47;;;;;;;;;;;18.50;62.60;;;;;;5031044;28;1857;-70
2023/05/11 09:30:16;;;;;;;;;;;18.50;62.60;;;;;;5025640;28;2133;-70
2023/05/11 09:32:54;;;;;;;;;;;18.50;62.60;;;;;;5055482;28;1426;-70
2023/05/11 09:35:22;;;;;;;;;;;18.50;62.70;;;;;;5025860;28;1910;-70
2023/05/11 09:38:04;;;;;;;;;;;18.50;62.70;;;;;;5024330;28;872;-71
2023/05/11 09:40:34;;;;;;;;;;;18.50;62.70;;;;;;5019976;28;1276;-71
2023/05/11 09:43:00;;;;;;;;;;;18.50;62.70;;;;;;5025776;28;849;-71
2023/05/11 09:45:41;;;;;;;;;;;18.40;62.70;;;;;;5023255;28;1349;-71
2023/05/11 09:48:19;;;;;;;;;;;18.40;62.70;;;;;;5027327;28;903;-72
2023/05/11 09:50:45;;;;;;;;;;;18.40;62.70;;;;;;5043209;28;1193;-72
2023/05/11 09:53:10;;;;;;;;;;;18.40;62.70;;;;;;5028593;28;1279;-72
2023/05/11 09:55:36;;;;;;;;;;;18.40;62.70;;;;;;5025257;28;1902;-71
2023/05/11 09:58:02;;;;;;;;;;;18.40;62.70;;;;;;5024162;28;828;-71
2023/05/11 10:00:27;;;;;;;;;;;18.40;62.70;;;;;;5007524;28;1303;-71
2023/05/11 10:03:02;;;;;;;;;;;18.40;62.70;;;;;;5030455;28;851;-72
2023/05/11 10:05:30;;;;;;;;;;;18.40;62.80;;;;;;5031340;28;1337;-71
2023/05/11 10:07:56;;;;;;;;;;;18.40;62.80;;;;;;5059474;28;921;-69
2023/05/11 10:10:22;;;;;;;;;;;18.50;62.80;;;;;;5026802;28;914;-69
2023/05/11 10:12:47;;;;;;;;;;;18.50;63.50;;;;;;5024283;28;1018;-69
2023/05/11 10:15:13;;;;;;;;;;;18.50;62.40;;;;;;5056283;28;1910;-68
2023/05/11 10:17:43;;;;;;;;;;;18.50;60.20;;;;;;5029510;28;872;-68
2023/05/11 10:20:08;;;;;;;;;;;18.60;58.90;;;;;;5019262;28;839;-68
2023/05/11 10:22:34;;;;;;;;;;;18.60;58.60;;;;;;5017865;28;1190;-69
2023/05/11 10:24:59;;;;;;;;;;;18.60;57.80;;;;;;5029184;28;1239;-69
2023/05/11 10:27:25;;;;;;;;;;;18.70;57.80;;;;;;5026093;28;2036;-69
2023/05/11 10:29:50;;;;;;;;;;;18.70;57.00;;;;;;5026598;28;1331;-68
2023/05/11 10:32:17;;;;;;;;;;;18.70;56.40;;;;;;5025513;28;1046;-69
2023/05/11 10:34:43;;;;;;;;;;;18.70;56.00;;;;;;5027388;28;1974;-69
2023/05/11 10:37:08;;;;;;;;;;;18.80;55.60;;;;;;5021910;28;943;-69
2023/05/11 10:39:37;;;;;;;;;;;18.80;55.50;;;;;;5024247;28;1253;-68
2023/05/11 10:42:15;;;;;;;;;;;18.80;55.20;;;;;;5027366;28;805;-69
2023/05/11 10:44:46;;;;;;;;;;;18.80;55.30;;;;;;5028608;28;1253;-69
2023/05/11 10:47:22;;;;;;;;;;;18.80;55.00;;;;;;5020141;28;790;-68
2023/05/11 10:49:48;;;;;;;;;;;18.80;55.00;;;;;;5022815;28;1079;-69
2023/05/11 10:52:32;;;;;;;;;;;18.80;54.70;;;;;;5024739;28;955;-68
2023/05/11 10:54:57;;;;;;;;;;;18.80;54.30;;;;;;5020560;28;1898;-68
2023/05/11 10:57:32;;;;;;;;;;;18.80;54.20;;;;;;5025350;28;875;-69
2023/05/11 11:00:09;;;;;;;;;;;18.90;54.30;;;;;;5028749;28;828;-68
2023/05/11 11:02:34;;;;;;;;;;;18.80;54.30;;;;;;5034752;28;1045;-69
2023/05/11 11:05:04;;;;;;;;;;;18.90;54.20;;;;;;5028187;28;1267;-69
2023/05/11 11:07:30;;;;;;;;;;;18.90;53.90;;;;;;5034046;28;989;-69
2023/05/11 11:09:58;;;;;;;;;;;18.80;53.80;;;;;;5023151;28;1502;-69
2023/05/11 11:12:25;;;;;;;;;;;18.80;53.60;;;;;;5015988;28;864;-70
2023/05/11 11:14:58;;;;;;;;;;;18.80;53.70;;;;;;5028103;28;1910;-69
2023/05/11 11:17:25;;;;;;;;;;;18.90;53.60;;;;;;5029686;28;876;-69
2023/05/11 11:19:51;;;;;;;;;;;18.90;53.50;;;;;;5015078;28;1355;-69
2023/05/11 11:22:37;;;;;;;;;;;18.90;53.10;;;;;;5031981;28;863;-68
2023/05/11 11:25:07;;;;;;;;;;;18.90;52.70;;;;;;5043635;28;1521;-67
2023/05/11 11:27:38;;;;;;;;;;;18.90;52.50;;;;;;5022556;28;2252;-68
2023/05/11 11:30:20;;;;;;;;;;;18.90;52.30;;;;;;5024458;28;1300;-68
2023/05/11 11:32:46;;;;;;;;;;;18.90;52.40;;;;;;5027387;28;1155;-68
2023/05/11 11:35:31;;;;;;;;;;;18.90;52.30;;;;;;5024184;28;1905;-68
2023/05/11 11:38:01;;;;;;;;;;;18.90;52.30;;;;;;5024173;28;931;-71
2023/05/11 11:40:35;;;;;;;;;;;18.90;52.00;;;;;;5028864;28;1023;-70
2023/05/11 11:43:11;;;;;;;;;;;18.90;52.00;;;;;;5030087;28;1376;-69
2023/05/11 11:45:37;;;;;;;;;;;18.90;51.80;;;;;;5026385;28;1413;-70
2023/05/11 11:48:05;;;;;;;;;;;18.90;51.70;;;;;;5018768;28;789;-70
2023/05/11 11:50:31;;;;;;;;;;;18.90;51.80;;;;;;5024280;28;983;-69
2023/05/11 11:52:56;;;;;;;;;;;18.90;51.70;;;;;;5029027;28;800;-70
2023/05/11 11:55:41;;;;;;;;;;;18.90;51.50;;;;;;5030451;28;1906;-70
2023/05/11 11:58:06;;;;;;;;;;;18.90;51.70;;;;;;5029142;28;844;-71
2023/05/11 12:00:32;;;;;;;;;;;18.90;51.70;;;;;;5029897;28;888;-70
2023/05/11 12:02:57;;;;;;;;;;;18.90;51.30;;;;;;5030944;28;1254;-69
2023/05/11 12:05:23;;;;;;;;;;;18.90;50.80;;;;;;5029940;28;1441;-70
2023/05/11 12:07:50;;;;;;;;;;;18.90;50.60;;;;;;5031324;28;1394;-70
2023/05/11 12:10:16;;;;;;;;;;;18.90;50.80;;;;;;5031490;28;894;-69
2023/05/11 12:12:45;;;;;;;;;;;18.90;50.80;;;;;;5028796;28;849;-70
2023/05/11 12:15:23;;;;;;;;;;;18.90;50.70;;;;;;5024449;28;1961;-70
2023/05/11 12:17:49;;;;;;;;;;;18.90;50.30;;;;;;5025753;28;881;-68
2023/05/11 12:20:15;;;;;;;;;;;18.90;50.30;;;;;;5029021;28;793;-69
2023/05/11 12:22:41;;;;;;;;;;;18.90;50.40;;;;;;5039501;28;1295;-70
2023/05/11 12:25:07;;;;;;;;;;;18.90;50.20;;;;;;5030138;28;1277;-68
2023/05/11 12:27:32;;;;;;;;;;;18.90;50.40;;;;;;5026834;28;818;-68
2023/05/11 12:29:59;;;;;;;;;;;18.90;50.40;;;;;;5024801;28;955;-69
2023/05/11 12:32:26;;;;;;;;;;;18.90;50.60;;;;;;5027916;28;863;-68
2023/05/11 12:34:58;;;;;;;;;;;18.90;50.50;;;;;;5031139;28;1973;-68
2023/05/11 12:37:24;;;;;;;;;;;18.90;50.30;;;;;;5026715;28;792;-69
2023/05/11 12:39:52;;;;;;;;;;;18.90;50.10;;;;;;5035126;28;987;-68
2023/05/11 12:42:18;;;;;;;;;;;18.90;49.90;;;;;;5033700;28;884;-69
2023/05/11 12:44:43;;;;;;;;;;;18.90;49.90;;;;;;5029871;28;1335;-69
2023/05/11 12:47:09;;;;;;;;;;;18.80;49.60;;;;;;5029989;28;847;-68
2023/05/11 12:49:35;;;;;;;;;;;18.90;49.30;;;;;;5028039;28;888;-69
2023/05/11 12:52:02;;;;;;;;;;;18.80;49.60;;;;;;5028020;28;856;-69
2023/05/11 12:54:31;;;;;;;;;;;18.90;49.70;;;;;;5023616;28;1972;-68
2023/05/11 12:56:56;;;;;;;;;;;18.90;49.30;;;;;;5026907;28;1140;-68
2023/05/11 12:59:32;;;;;;;;;;;18.80;49.70;;;;;;5029571;28;907;-68
2023/05/11 13:02:07;;;;;;;;;;;18.90;50.00;;;;;;5023080;28;836;-69
2023/05/11 13:04:32;;;;;;;;;;;18.90;50.50;;;;;;5027571;28;1511;-68
2023/05/11 13:06:58;;;;;;;;;;;18.90;50.30;;;;;;5029520;28;1511;-69
2023/05/11 13:09:24;;;;;;;;;;;18.90;50.00;;;;;;5024689;28;800;-69
2023/05/11 13:12:05;;;;;;;;;;;18.90;50.00;;;;;;5025507;28;1151;-69
2023/05/11 13:14:30;;;;;;;;;;;18.90;50.40;;;;;;5027506;28;1934;-70
2023/05/11 13:16:56;;;;;;;;;;;18.90;50.00;;;;;;5028406;28;1545;-71
2023/05/11 13:19:26;;;;;;;;;;;18.90;49.70;;;;;;5022978;28;807;-70
2023/05/11 13:21:52;;;;;;;;;;;18.90;49.50;;;;;;5016482;28;991;-69
2023/05/11 13:24:21;;;;;;;;;;;18.90;49.40;;;;;;5030507;28;1010;-69
2023/05/11 13:26:46;;;;;;;;;;;18.90;49.10;;;;;;5026301;28;1248;-70
2023/05/11 13:29:12;;;;;;;;;;;18.90;49.40;;;;;;5019480;28;861;-70
2023/05/11 13:31:44;;;;;;;;;;;18.90;49.00;;;;;;5052786;28;1053;-70
2023/05/11 13:34:10;;;;;;;;;;;18.90;49.10;;;;;;5023506;28;2005;-69
2023/05/11 13:36:36;;;;;;;;;;;18.90;49.00;;;;;;5030676;28;1339;-70
2023/05/11 13:39:02;;;;;;;;;;;18.90;49.00;;;;;;5025807;28;998;-68
2023/05/11 13:41:27;;;;;;;;;;;18.90;49.00;;;;;;5028388;28;1012;-70
2023/05/11 13:43:52;;;;;;;;;;;18.90;48.90;;;;;;5027117;28;944;-69
2023/05/11 13:46:18;;;;;;;;;;;18.90;48.60;;;;;;5023665;28;1276;-69
2023/05/11 13:48:43;;;;;;;;;;;18.90;48.70;;;;;;5021960;28;1002;-70
2023/05/11 13:51:09;;;;;;;;;;;18.90;48.60;;;;;;5020699;28;807;-69
2023/05/11 13:53:34;;;;;;;;;;;19.00;48.90;;;;;;5029085;28;843;-69
2023/05/11 13:56:00;;;;;;;;;;;18.90;48.60;;;;;;5028421;28;1993;-69
2023/05/11 13:58:26;;;;;;;;;;;18.90;48.30;;;;;;5031812;28;1316;-70
2023/05/11 14:00:54;;;;;;;;;;;18.90;48.10;;;;;;5023048;28;887;-69
2023/05/11 14:03:20;;;;;;;;;;;18.90;48.10;;;;;;5027008;28;872;-69
2023/05/11 14:05:48;;;;;;;;;;;18.90;47.90;;;;;;5061488;28;1309;-69
2023/05/11 14:08:14;;;;;;;;;;;18.90;48.00;;;;;;5025144;28;876;-69
2023/05/11 14:10:40;;;;;;;;;;;18.90;48.20;;;;;;5030365;28;1334;-69
2023/05/11 14:13:05;;;;;;;;;;;18.90;48.50;;;;;;5019786;28;931;-67
2023/05/11 14:15:31;;;;;;;;;;;18.90;48.50;;;;;;5018493;28;1914;-69
2023/05/11 14:17:57;;;;;;;;;;;18.90;48.30;;;;;;5030320;28;915;-69
2023/05/11 14:20:22;;;;;;;;;;;18.90;48.20;;;;;;5028710;28;840;-68
2023/05/11 14:22:48;;;;;;;;;;;18.90;48.10;;;;;;5027109;28;824;-70
2023/05/11 14:25:13;;;;;;;;;;;18.90;48.20;;;;;;5027932;28;1271;-71
2023/05/11 14:27:39;;;;;;;;;;;18.90;49.80;;;;;;5019096;28;951;-73
2023/05/11 14:30:05;;;;;;;;;;;18.90;51.20;;;;;;5026526;28;834;-73
2023/05/11 14:32:30;;;;;;;;;;;18.90;51.80;;;;;;5014511;28;853;-72
2023/05/11 14:34:56;;;;;;;;;;;18.90;52.30;;;;;;5026306;28;1964;-73